Time;durP1;ratioP1;P1;durP2;ratioP2;P2;SDS_P1;SDS_P2;PMS_P1;PMS_P2;Temp;Humidity;BMP_temperature;BMP_pressure;BME280_temperature;BME280_humidity;BME280_pressure;Samples;Min_cycle;Max_cycle;Signal;HPM_P1;HPM_P2
2023/12/06 00:01:49;;;;;;;0.30;0.20;;;3.40;99.90;;;;;;5106730;28;20173;-76
2023/12/06 00:04:15;;;;;;;0.30;0.30;;;3.40;99.90;;;;;;5109003;28;20206;-76
2023/12/06 00:06:40;;;;;;;0.30;0.20;;;3.40;99.90;;;;;;5092633;28;20638;-76
2023/12/06 00:09:06;;;;;;;0.30;0.20;;;3.40;99.90;;;;;;5092478;28;20216;-76
2023/12/06 00:11:32;;;;;;;0.30;0.20;;;3.40;99.90;;;;;;5091978;28;20176;-76
2023/12/06 00:13:57;;;;;;;0.30;0.20;;;3.40;99.90;;;;;;5093079;28;20426;-76
2023/12/06 00:16:23;;;;;;;0.30;0.30;;;3.40;99.90;;;;;;5108218;28;20431;-76
2023/12/06 00:18:49;;;;;;;0.30;0.30;;;3.40;99.90;;;;;;5108802;28;20200;-76
2023/12/06 00:21:15;;;;;;;0.30;0.30;;;3.40;99.90;;;;;;5092603;28;20563;-76
2023/12/06 00:23:41;;;;;;;0.30;0.30;;;3.40;99.90;;;;;;5108497;28;20204;-76
2023/12/06 00:26:06;;;;;;;0.30;0.30;;;3.40;99.90;;;;;;5108397;28;20328;-76
2023/12/06 00:28:32;;;;;;;0.30;0.20;;;3.40;99.90;;;;;;5092938;28;20577;-76
2023/12/06 00:30:58;;;;;;;0.30;0.30;;;3.40;99.90;;;;;;5092558;28;20172;-76
2023/12/06 00:33:24;;;;;;;0.30;0.30;;;3.40;99.90;;;;;;5108563;28;20196;-76
2023/12/06 00:35:50;;;;;;;0.30;0.20;;;3.40;99.90;;;;;;5092382;28;20532;-76
2023/12/06 00:38:16;;;;;;;0.30;0.20;;;3.30;99.90;;;;;;5092243;28;20602;-76
2023/12/06 00:40:44;;;;;;;0.30;0.20;;;3.30;99.90;;;;;;5091935;28;20210;-76
2023/12/06 00:43:10;;;;;;;0.30;0.30;;;3.30;99.90;;;;;;5108016;28;20208;-76
2023/12/06 00:45:35;;;;;;;0.30;0.20;;;3.30;99.90;;;;;;5107866;28;20177;-76
2023/12/06 00:48:01;;;;;;;0.30;0.30;;;3.30;99.90;;;;;;5092432;28;20196;-76
2023/12/06 00:50:27;;;;;;;0.30;0.30;;;3.30;99.90;;;;;;5107814;28;20172;-76
2023/12/06 00:52:52;;;;;;;0.30;0.30;;;3.30;99.90;;;;;;5107604;28;20426;-76
2023/12/06 00:55:18;;;;;;;0.30;0.30;;;3.30;99.90;;;;;;5091864;28;20425;-76
2023/12/06 00:57:44;;;;;;;0.30;0.30;;;3.30;99.90;;;;;;5091796;28;20177;-76
2023/12/06 01:00:10;;;;;;;0.30;0.30;;;3.20;99.90;;;;;;5092239;28;20212;-76
2023/12/06 01:02:38;;;;;;;0.30;0.20;;;3.20;99.90;;;;;;5091926;28;20226;-77
2023/12/06 01:05:05;;;;;;;0.30;0.20;;;3.20;99.90;;;;;;5107169;28;20176;-76
2023/12/06 01:07:30;;;;;;;0.30;0.30;;;3.20;99.90;;;;;;5107522;28;20256;-77
2023/12/06 01:09:56;;;;;;;0.30;0.30;;;3.20;99.90;;;;;;5091584;28;20586;-76
2023/12/06 01:12:22;;;;;;;0.57;0.57;;;3.20;99.90;;;;;;5105601;28;20176;-76
2023/12/06 01:14:47;;;;;;;0.30;0.20;;;3.20;99.90;;;;;;5091233;28;20203;-76
2023/12/06 01:17:13;;;;;;;0.30;0.20;;;3.20;99.90;;;;;;5107457;28;20232;-76
2023/12/06 01:19:39;;;;;;;0.30;0.20;;;3.20;99.90;;;;;;5091978;28;20243;-76
2023/12/06 01:22:04;;;;;;;0.30;0.30;;;3.20;99.90;;;;;;5091420;28;20177;-76
2023/12/06 01:24:30;;;;;;;0.30;0.30;;;3.20;99.90;;;;;;5107271;28;20736;-76
2023/12/06 01:26:56;;;;;;;0.30;0.30;;;3.20;99.90;;;;;;5091336;28;20196;-76
2023/12/06 01:29:22;;;;;;;0.30;0.20;;;3.20;99.90;;;;;;5091441;28;20189;-76
2023/12/06 01:31:47;;;;;;;0.30;0.30;;;3.20;99.90;;;;;;5091187;28;20408;-76
2023/12/06 01:34:13;;;;;;;0.30;0.20;;;3.10;99.90;;;;;;5091376;28;20748;-76
2023/12/06 01:36:39;;;;;;;0.30;0.20;;;3.10;99.90;;;;;;5091164;28;20191;-76
2023/12/06 01:39:04;;;;;;;0.30;0.20;;;3.10;99.90;;;;;;5091418;28;20804;-76
2023/12/06 01:41:30;;;;;;;0.30;0.30;;;3.10;99.90;;;;;;5091049;28;20231;-76
2023/12/06 01:43:56;;;;;;;0.30;0.30;;;3.10;99.90;;;;;;5106482;28;20212;-76
2023/12/06 01:46:21;;;;;;;0.30;0.20;;;3.10;99.90;;;;;;5090826;28;20552;-76
2023/12/06 01:48:48;;;;;;;0.30;0.20;;;3.10;99.90;;;;;;5091580;28;20226;-76
2023/12/06 01:51:17;;;;;;;0.30;0.20;;;3.10;99.90;;;;;;5090959;28;20183;-77
2023/12/06 01:53:42;;;;;;;0.30;0.30;;;3.10;99.90;;;;;;5106853;28;20231;-76
2023/12/06 01:56:09;;;;;;;0.30;0.30;;;3.10;99.90;;;;;;5090801;28;20204;-76
2023/12/06 01:58:37;;;;;;;0.30;0.30;;;3.10;99.90;;;;;;5090423;28;20200;-76
2023/12/06 02:01:05;;;;;;;0.30;0.20;;;3.10;99.90;;;;;;5106181;28;20262;-76
2023/12/06 02:03:34;;;;;;;0.30;0.20;;;3.00;99.90;;;;;;5106761;28;20207;-76
2023/12/06 02:06:06;;;;;;;0.30;0.30;;;3.10;99.90;;;;;;5106064;28;20616;-76
2023/12/06 02:08:34;;;;;;;0.30;0.20;;;3.10;99.90;;;;;;5091115;28;20528;-76
2023/12/06 02:11:00;;;;;;;0.30;0.20;;;3.00;99.90;;;;;;5106067;28;20173;-76
2023/12/06 02:13:30;;;;;;;0.30;0.30;;;3.00;99.90;;;;;;5089460;28;20192;-76
2023/12/06 02:15:56;;;;;;;0.30;0.20;;;3.00;99.90;;;;;;5105757;28;20235;-76
2023/12/06 02:18:23;;;;;;;0.60;0.60;;;3.10;99.90;;;;;;5091292;28;20727;-76
2023/12/06 02:20:49;;;;;;;0.30;0.30;;;3.00;99.90;;;;;;5090417;28;20283;-76
2023/12/06 02:23:16;;;;;;;0.30;0.30;;;3.00;99.90;;;;;;5090873;28;20451;-76
2023/12/06 02:25:44;;;;;;;0.30;0.20;;;3.00;99.90;;;;;;5089998;28;20588;-76
2023/12/06 02:28:10;;;;;;;0.30;0.30;;;3.00;99.90;;;;;;5090502;28;20204;-76
2023/12/06 02:30:35;;;;;;;0.30;0.30;;;3.00;99.90;;;;;;5105540;28;20278;-76
2023/12/06 02:33:01;;;;;;;0.40;0.30;;;3.00;99.90;;;;;;5106016;28;20261;-76
2023/12/06 02:35:32;;;;;;;0.30;0.20;;;3.00;99.90;;;;;;5105675;28;20176;-76
2023/12/06 02:38:00;;;;;;;0.30;0.30;;;3.00;99.90;;;;;;5090377;28;20421;-76
2023/12/06 02:40:27;;;;;;;0.30;0.30;;;3.00;99.90;;;;;;5105208;28;20210;-76
2023/12/06 02:42:53;;;;;;;0.30;0.30;;;3.00;99.90;;;;;;5090006;28;20204;-76
2023/12/06 02:45:18;;;;;;;0.30;0.30;;;3.00;99.90;;;;;;5105563;28;20610;-76
2023/12/06 02:47:45;;;;;;;0.30;0.20;;;3.00;99.90;;;;;;5105786;28;20216;-76
2023/12/06 02:50:11;;;;;;;0.30;0.20;;;3.00;99.90;;;;;;5089858;28;20173;-76
2023/12/06 02:52:36;;;;;;;0.30;0.20;;;3.00;99.90;;;;;;5089952;28;20264;-76
2023/12/06 02:55:02;;;;;;;0.30;0.30;;;3.00;99.90;;;;;;5105296;28;20172;-76
2023/12/06 02:57:28;;;;;;;0.30;0.20;;;3.00;99.90;;;;;;5089769;28;20439;-76
2023/12/06 02:59:53;;;;;;;0.30;0.30;;;3.00;99.90;;;;;;5089579;28;20979;-76
2023/12/06 03:02:19;;;;;;;0.30;0.30;;;3.00;99.90;;;;;;5089874;28;20262;-76
2023/12/06 03:04:45;;;;;;;0.30;0.30;;;3.00;99.90;;;;;;5089721;28;20197;-76
2023/12/06 03:07:10;;;;;;;0.30;0.30;;;3.00;99.90;;;;;;5089415;28;20188;-76
2023/12/06 03:09:36;;;;;;;0.30;0.30;;;3.00;99.90;;;;;;5105035;28;20677;-76
2023/12/06 03:12:02;;;;;;;0.30;0.30;;;3.00;99.90;;;;;;5105387;28;20192;-76
2023/12/06 03:14:28;;;;;;;0.55;0.55;;;3.10;99.90;;;;;;5105084;28;20924;-76
2023/12/06 03:16:54;;;;;;;0.30;0.30;;;3.10;99.90;;;;;;5104080;28;20255;-76
2023/12/06 03:19:19;;;;;;;0.30;0.20;;;3.10;99.90;;;;;;5089638;28;20192;-76
2023/12/06 03:21:45;;;;;;;0.30;0.30;;;3.10;99.90;;;;;;5089174;28;20176;-76
2023/12/06 03:24:11;;;;;;;0.30;0.30;;;3.10;99.90;;;;;;5089918;28;20649;-76
2023/12/06 03:26:36;;;;;;;0.30;0.20;;;3.10;99.90;;;;;;5104926;28;20168;-76
2023/12/06 03:29:02;;;;;;;0.30;0.30;;;3.10;99.90;;;;;;5089483;28;20468;-76
2023/12/06 03:31:27;;;;;;;0.30;0.20;;;3.10;99.90;;;;;;5104815;28;20257;-76
2023/12/06 03:33:53;;;;;;;0.30;0.30;;;3.10;99.90;;;;;;5089572;28;20200;-76
2023/12/06 03:36:19;;;;;;;0.30;0.20;;;3.20;99.90;;;;;;5090126;28;20464;-76
2023/12/06 03:38:44;;;;;;;0.30;0.30;;;3.20;99.90;;;;;;5093781;28;20591;-76
2023/12/06 03:41:41;;;;;;;0.30;0.30;;;3.20;99.90;;;;;;5093142;28;20215;-76
2023/12/06 03:44:07;;;;;;;0.30;0.30;;;3.20;99.90;;;;;;5109443;28;20205;-76
2023/12/06 03:46:32;;;;;;;0.30;0.20;;;3.20;99.90;;;;;;5093242;28;20176;-76
2023/12/06 03:48:58;;;;;;;0.30;0.20;;;3.20;99.90;;;;;;5109174;28;20606;-76
2023/12/06 03:51:24;;;;;;;0.30;0.20;;;3.30;99.90;;;;;;5108817;28;20180;-76
2023/12/06 03:53:50;;;;;;;0.30;0.20;;;3.30;99.90;;;;;;5093424;28;20696;-76
2023/12/06 03:56:15;;;;;;;0.30;0.30;;;3.40;99.90;;;;;;5108430;28;20176;-76
2023/12/06 03:58:41;;;;;;;0.30;0.30;;;3.40;99.90;;;;;;5092927;28;20228;-76
2023/12/06 04:01:07;;;;;;;0.30;0.20;;;3.40;99.90;;;;;;5108680;28;20212;-76
2023/12/06 04:03:33;;;;;;;0.30;0.20;;;3.40;99.90;;;;;;5093174;28;20689;-76
2023/12/06 04:05:59;;;;;;;0.30;0.20;;;3.40;99.90;;;;;;5092858;28;20238;-76
2023/12/06 04:08:25;;;;;;;0.30;0.30;;;3.40;99.90;;;;;;5108623;28;20444;-76
2023/12/06 04:10:50;;;;;;;0.30;0.20;;;3.50;99.90;;;;;;5092587;28;20703;-76
2023/12/06 04:13:16;;;;;;;0.37;0.37;;;3.50;99.90;;;;;;5092747;28;20196;-76
2023/12/06 04:15:42;;;;;;;0.30;0.20;;;3.50;99.90;;;;;;5091938;28;20214;-76
2023/12/06 04:18:07;;;;;;;0.30;0.30;;;3.50;99.90;;;;;;5093093;28;20411;-76
2023/12/06 04:20:33;;;;;;;0.30;0.30;;;3.50;99.90;;;;;;5092829;28;20204;-76
2023/12/06 04:22:59;;;;;;;0.30;0.30;;;3.50;99.90;;;;;;5092663;28;20396;-76
2023/12/06 04:25:25;;;;;;;22.13;21.30;;;3.50;99.90;;;;;;5107989;28;20211;-76
2023/12/06 04:27:50;;;;;;;0.33;0.23;;;3.50;99.90;;;;;;5091381;28;20188;-76
2023/12/06 04:30:16;;;;;;;0.30;0.20;;;3.60;99.90;;;;;;5108016;28;20204;-76
2023/12/06 04:32:42;;;;;;;0.30;0.30;;;3.60;99.90;;;;;;5108162;28;20184;-76
2023/12/06 04:35:09;;;;;;;0.30;0.20;;;3.60;99.90;;;;;;5092474;28;20203;-76
2023/12/06 04:37:35;;;;;;;0.30;0.20;;;3.60;99.90;;;;;;5108243;28;20206;-76
2023/12/06 04:40:01;;;;;;;0.30;0.20;;;3.60;99.90;;;;;;5091955;28;20212;-76
2023/12/06 04:42:27;;;;;;;0.30;0.30;;;3.60;99.90;;;;;;5107991;28;20214;-76
2023/12/06 04:44:55;;;;;;;0.30;0.20;;;3.60;99.90;;;;;;5092294;28;20425;-75
2023/12/06 04:47:21;;;;;;;0.30;0.20;;;3.60;99.90;;;;;;5092076;28;20395;-76
2023/12/06 04:49:46;;;;;;;0.30;0.30;;;3.60;99.90;;;;;;5092096;28;20688;-76
2023/12/06 04:52:13;;;;;;;0.30;0.20;;;3.60;99.90;;;;;;5108039;28;20237;-76
2023/12/06 04:54:39;;;;;;;0.30;0.20;;;3.60;99.90;;;;;;5107504;28;20601;-75
2023/12/06 04:57:05;;;;;;;0.30;0.20;;;3.60;99.90;;;;;;5107913;28;20258;-76
2023/12/06 04:59:31;;;;;;;0.40;0.40;;;3.60;99.90;;;;;;5107552;28;20192;-76
2023/12/06 05:01:56;;;;;;;0.30;0.20;;;3.60;99.90;;;;;;5091917;28;20191;-76
2023/12/06 05:04:23;;;;;;;0.30;0.20;;;3.60;99.90;;;;;;5092078;28;20246;-76
2023/12/06 05:06:49;;;;;;;0.30;0.30;;;3.60;99.90;;;;;;5107639;28;20172;-76
2023/12/06 05:09:15;;;;;;;0.30;0.20;;;3.60;99.90;;;;;;5092508;28;20192;-77
2023/12/06 05:11:40;;;;;;;0.30;0.30;;;3.60;99.90;;;;;;5090161;28;20221;-76
2023/12/06 05:14:06;;;;;;;0.30;0.20;;;3.60;99.90;;;;;;5091643;28;20249;-75
2023/12/06 05:16:32;;;;;;;0.30;0.20;;;3.60;99.90;;;;;;5103947;27;20223;-77
2023/12/06 05:18:58;;;;;;;0.30;0.20;;;3.60;99.90;;;;;;5090112;28;20208;-76
2023/12/06 05:21:23;;;;;;;0.30;0.20;;;3.60;99.90;;;;;;5089029;28;20219;-77
2023/12/06 05:23:49;;;;;;;0.40;0.20;;;3.60;99.90;;;;;;5098792;28;20201;-77
2023/12/06 05:26:15;;;;;;;0.30;0.20;;;3.60;99.90;;;;;;5097271;28;20180;-77
2023/12/06 05:28:41;;;;;;;0.40;0.40;;;3.60;99.90;;;;;;5097816;28;20683;-76
2023/12/06 05:31:06;;;;;;;0.30;0.20;;;3.60;99.90;;;;;;5092357;28;20425;-77
2023/12/06 05:33:32;;;;;;;0.30;0.20;;;3.70;99.90;;;;;;5083334;28;20664;-76
2023/12/06 05:35:58;;;;;;;0.30;0.20;;;3.70;99.90;;;;;;5081548;28;20196;-76
2023/12/06 05:38:23;;;;;;;0.30;0.30;;;3.70;99.90;;;;;;5082887;28;20208;-76
2023/12/06 05:40:50;;;;;;;0.30;0.20;;;3.70;99.90;;;;;;5082624;28;20208;-76
2023/12/06 05:43:15;;;;;;;0.30;0.22;;;3.80;99.90;;;;;;5080840;28;20592;-75
2023/12/06 05:45:41;;;;;;;0.40;0.30;;;3.80;99.90;;;;;;5081344;28;20471;-76
2023/12/06 05:48:07;;;;;;;0.30;0.20;;;3.80;99.90;;;;;;5082182;28;20689;-76
2023/12/06 05:50:33;;;;;;;40.60;38.00;;;3.80;99.90;;;;;;5089428;28;20387;-76
2023/12/06 05:52:59;;;;;;;0.30;0.20;;;3.80;99.90;;;;;;5100367;27;20611;-76
2023/12/06 05:55:25;;;;;;;0.30;0.20;;;3.80;99.90;;;;;;5096924;28;20172;-76
2023/12/06 05:57:50;;;;;;;0.30;0.20;;;3.80;99.90;;;;;;5091551;28;20180;-77
2023/12/06 06:00:17;;;;;;;0.30;0.20;;;3.80;99.90;;;;;;5097290;28;20472;-76
2023/12/06 06:02:43;;;;;;;0.30;0.20;;;3.80;99.90;;;;;;5116639;27;20261;-76
2023/12/06 06:05:09;;;;;;;0.30;0.20;;;3.90;99.90;;;;;;5098240;28;20174;-76
2023/12/06 06:07:35;;;;;;;0.30;0.20;;;3.80;99.90;;;;;;5093764;28;20180;-76
2023/12/06 06:10:02;;;;;;;0.30;0.20;;;3.80;99.90;;;;;;5089141;28;20644;-76
2023/12/06 06:12:28;;;;;;;0.30;0.20;;;3.80;99.90;;;;;;5096986;28;20184;-76
2023/12/06 06:14:54;;;;;;;0.30;0.20;;;3.80;99.90;;;;;;5093119;28;20221;-76
2023/12/06 06:17:19;;;;;;;0.30;0.23;;;3.80;99.90;;;;;;5089619;28;20323;-76
2023/12/06 06:19:45;;;;;;;0.30;0.30;;;3.80;99.90;;;;;;5087994;28;20520;-76
2023/12/06 06:22:11;;;;;;;0.30;0.30;;;3.80;99.90;;;;;;5088997;28;20196;-76
2023/12/06 06:24:36;;;;;;;0.30;0.20;;;3.90;99.90;;;;;;5078329;28;20192;-76
2023/12/06 06:27:02;;;;;;;0.30;0.20;;;3.90;99.90;;;;;;5088543;28;20195;-76
2023/12/06 06:29:28;;;;;;;0.30;0.20;;;3.90;99.90;;;;;;5103209;28;20204;-76
2023/12/06 06:31:53;;;;;;;0.30;0.30;;;3.90;99.90;;;;;;5098726;28;20190;-76
2023/12/06 06:34:20;;;;;;;0.30;0.30;;;3.90;99.90;;;;;;5089122;28;20606;-76
2023/12/06 06:36:45;;;;;;;0.30;0.20;;;3.90;99.90;;;;;;5092296;28;20176;-76
2023/12/06 06:39:12;;;;;;;0.30;0.30;;;3.90;99.90;;;;;;5091455;28;20339;-76
2023/12/06 06:41:41;;;;;;;0.30;0.20;;;3.90;99.90;;;;;;5091751;28;20207;-76
2023/12/06 06:44:07;;;;;;;0.30;0.30;;;3.90;99.90;;;;;;5087699;28;20298;-77
2023/12/06 06:46:33;;;;;;;0.30;0.28;;;3.90;99.90;;;;;;5080141;28;20179;-76
2023/12/06 06:48:59;;;;;;;0.30;0.20;;;3.90;99.90;;;;;;5082434;28;20239;-77
2023/12/06 06:51:38;;;;;;;0.30;0.20;;;3.90;99.90;;;;;;5083505;28;20188;-76
2023/12/06 06:54:06;;;;;;;0.30;0.30;;;4.00;99.90;;;;;;5082147;28;21904;-77
2023/12/06 06:56:32;;;;;;;0.30;0.30;;;3.90;99.90;;;;;;5081150;28;20730;-77
2023/12/06 06:58:58;;;;;;;0.30;0.27;;;3.90;99.90;;;;;;5090773;28;20232;-76
2023/12/06 07:01:23;;;;;;;0.30;0.30;;;3.90;99.90;;;;;;5086228;28;20940;-77
2023/12/06 07:03:50;;;;;;;0.30;0.30;;;3.90;99.90;;;;;;5090596;28;20608;-76
2023/12/06 07:06:15;;;;;;;0.30;0.20;;;3.90;99.90;;;;;;5081231;28;20207;-76
2023/12/06 07:08:41;;;;;;;0.50;0.50;;;3.90;99.90;;;;;;5086642;28;20204;-76
2023/12/06 07:11:10;;;;;;;0.30;0.20;;;3.90;99.90;;;;;;5083751;28;20184;-76
2023/12/06 07:13:36;;;;;;;0.30;0.30;;;3.90;99.90;;;;;;5082870;28;20294;-76
2023/12/06 07:16:02;;;;;;;0.30;0.27;;;3.90;99.90;;;;;;5080715;28;20251;-77
2023/12/06 07:18:29;;;;;;;0.30;0.20;;;3.90;99.90;;;;;;5080595;28;20443;-77
2023/12/06 07:20:55;;;;;;;0.30;0.20;;;3.90;99.90;;;;;;5085742;28;20232;-76
2023/12/06 07:23:20;;;;;;;0.30;0.30;;;3.90;99.90;;;;;;5097219;28;20303;-76
2023/12/06 07:25:46;;;;;;;0.30;0.30;;;3.90;99.90;;;;;;5090300;28;20705;-77
2023/12/06 07:28:13;;;;;;;0.30;0.30;;;3.80;99.90;;;;;;5089891;28;20199;-76
2023/12/06 07:30:40;;;;;;;0.30;0.30;;;3.80;99.90;;;;;;5080887;28;20431;-77
2023/12/06 07:33:07;;;;;;;0.30;0.30;;;3.90;99.90;;;;;;5087103;28;20882;-76
2023/12/06 07:35:33;;;;;;;0.30;0.30;;;3.90;99.90;;;;;;5081182;28;20156;-76
2023/12/06 07:37:59;;;;;;;0.30;0.30;;;3.90;99.90;;;;;;5086912;28;20220;-76
2023/12/06 07:40:25;;;;;;;0.30;0.20;;;3.90;99.90;;;;;;5080656;28;20277;-76
2023/12/06 07:42:51;;;;;;;0.30;0.20;;;3.90;99.90;;;;;;5080254;28;20283;-76
2023/12/06 07:45:17;;;;;;;0.30;0.20;;;3.90;99.90;;;;;;5080177;28;20210;-77
2023/12/06 07:47:42;;;;;;;0.30;0.20;;;3.90;99.90;;;;;;5083682;28;20427;-77
2023/12/06 07:50:09;;;;;;;0.30;0.23;;;3.90;99.90;;;;;;5087094;28;20398;-76
2023/12/06 07:52:35;;;;;;;0.30;0.20;;;3.90;99.90;;;;;;5089198;28;20187;-76
2023/12/06 07:55:06;;;;;;;0.30;0.20;;;3.90;99.90;;;;;;5088631;28;20538;-77
2023/12/06 07:57:32;;;;;;;0.30;0.20;;;3.90;99.90;;;;;;5084556;28;20193;-77
2023/12/06 07:59:58;;;;;;;0.30;0.20;;;3.90;99.90;;;;;;5086311;28;20210;-77
2023/12/06 08:02:25;;;;;;;0.30;0.20;;;3.90;99.90;;;;;;5087001;28;20185;-76
2023/12/06 08:04:50;;;;;;;0.30;0.25;;;3.90;99.90;;;;;;5084196;28;20522;-76
2023/12/06 08:07:16;;;;;;;0.30;0.30;;;3.90;99.90;;;;;;5087912;28;20184;-76
2023/12/06 08:09:42;;;;;;;0.30;0.20;;;3.90;99.90;;;;;;5089697;28;20208;-76
2023/12/06 08:12:08;;;;;;;0.30;0.20;;;3.90;99.90;;;;;;5095592;28;20674;-76
2023/12/06 08:14:34;;;;;;;0.30;0.20;;;3.90;99.90;;;;;;5079048;28;20411;-76
2023/12/06 08:17:00;;;;;;;0.30;0.20;;;3.90;99.90;;;;;;5087434;28;20232;-76
2023/12/06 08:19:26;;;;;;;0.30;0.20;;;3.90;99.90;;;;;;5090801;28;20200;-76
2023/12/06 08:21:52;;;;;;;0.30;0.30;;;3.90;99.90;;;;;;5085112;28;20725;-76
2023/12/06 08:24:17;;;;;;;0.30;0.20;;;4.00;99.90;;;;;;5079892;28;20289;-76
2023/12/06 08:26:43;;;;;;;0.30;0.30;;;4.00;99.90;;;;;;5077143;28;20188;-77
2023/12/06 08:29:09;;;;;;;0.30;0.20;;;4.00;99.90;;;;;;5104960;27;20206;-76
2023/12/06 08:31:38;;;;;;;0.30;0.20;;;4.00;99.90;;;;;;5087042;28;20813;-76
2023/12/06 08:34:03;;;;;;;1.48;1.38;;;4.00;99.90;;;;;;5093751;28;21102;-76
2023/12/06 08:36:29;;;;;;;0.30;0.30;;;4.00;99.90;;;;;;5090501;28;20176;-76
2023/12/06 08:38:54;;;;;;;0.30;0.30;;;4.00;99.90;;;;;;5087508;28;20204;-76
2023/12/06 08:41:22;;;;;;;0.30;0.20;;;4.00;99.90;;;;;;5087066;28;20250;-76
2023/12/06 08:43:47;;;;;;;0.30;0.30;;;4.10;99.90;;;;;;5079800;28;20305;-76
2023/12/06 08:46:13;;;;;;;0.30;0.30;;;4.10;99.90;;;;;;5078944;28;20709;-77
2023/12/06 08:48:39;;;;;;;0.30;0.20;;;4.10;99.90;;;;;;5079489;28;20204;-76
2023/12/06 08:51:04;;;;;;;0.30;0.30;;;4.10;99.90;;;;;;5075159;28;20249;-76
2023/12/06 08:53:30;;;;;;;0.30;0.20;;;4.10;99.90;;;;;;5077960;28;20227;-76
2023/12/06 08:55:56;;;;;;;0.30;0.30;;;4.10;99.90;;;;;;5078414;28;20172;-76
2023/12/06 08:58:22;;;;;;;0.30;0.20;;;4.20;99.90;;;;;;5076746;28;20195;-76
2023/12/06 09:00:48;;;;;;;0.70;0.70;;;4.20;99.90;;;;;;5076927;28;20261;-77
2023/12/06 09:03:14;;;;;;;0.30;0.20;;;4.20;99.90;;;;;;5076778;28;20208;-77
2023/12/06 09:05:40;;;;;;;0.30;0.30;;;4.20;99.90;;;;;;5076433;28;20425;-76
2023/12/06 09:08:06;;;;;;;0.30;0.20;;;4.20;99.90;;;;;;5080310;28;20196;-76
2023/12/06 09:10:32;;;;;;;0.30;0.20;;;4.30;99.90;;;;;;5087904;28;20168;-76
2023/12/06 09:12:58;;;;;;;0.30;0.20;;;4.30;99.90;;;;;;5082527;28;20518;-77
2023/12/06 09:15:24;;;;;;;0.30;0.30;;;4.30;99.90;;;;;;5090305;28;20263;-76
2023/12/06 09:17:49;;;;;;;0.30;0.20;;;4.30;99.90;;;;;;5094854;28;20476;-77
2023/12/06 09:20:17;;;;;;;0.30;0.30;;;4.30;99.90;;;;;;5087696;28;20239;-77
2023/12/06 09:22:43;;;;;;;0.30;0.30;;;4.30;99.90;;;;;;5085147;28;20184;-77
2023/12/06 09:25:08;;;;;;;0.30;0.20;;;4.30;99.90;;;;;;5083473;28;20388;-77
2023/12/06 09:27:34;;;;;;;0.30;0.20;;;4.30;99.90;;;;;;5084571;28;20189;-77
2023/12/06 09:30:00;;;;;;;0.30;0.20;;;4.30;99.90;;;;;;5081055;28;20614;-77
2023/12/06 09:32:26;;;;;;;0.30;0.20;;;4.30;99.90;;;;;;5079628;28;20181;-77
2023/12/06 09:34:52;;;;;;;0.30;0.30;;;4.30;99.90;;;;;;5085055;28;20436;-77
2023/12/06 09:37:18;;;;;;;0.30;0.30;;;4.40;99.90;;;;;;5090031;28;20180;-77
2023/12/06 09:39:43;;;;;;;0.30;0.20;;;4.40;99.90;;;;;;5090711;28;20540;-77
2023/12/06 09:42:10;;;;;;;0.30;0.30;;;4.30;99.90;;;;;;5087279;28;20429;-76
2023/12/06 09:44:37;;;;;;;0.30;0.30;;;4.40;99.90;;;;;;5088174;28;20196;-76
2023/12/06 09:47:03;;;;;;;0.30;0.30;;;4.40;99.90;;;;;;5082746;28;20689;-76
2023/12/06 09:49:29;;;;;;;0.30;0.20;;;4.40;99.90;;;;;;5089367;28;20214;-76
2023/12/06 09:52:21;;;;;;;0.30;0.20;;;4.40;99.90;;;;;;5089495;28;20533;-76
2023/12/06 09:54:51;;;;;;;0.30;0.20;;;4.40;99.90;;;;;;5077260;28;20207;-76
2023/12/06 09:57:17;;;;;;;0.30;0.20;;;4.40;99.90;;;;;;5076951;28;20308;-76
2023/12/06 09:59:43;;;;;;;0.30;0.20;;;4.40;99.90;;;;;;5091297;28;20684;-76
2023/12/06 10:02:09;;;;;;;0.30;0.20;;;4.40;99.90;;;;;;5084845;28;20226;-76
2023/12/06 10:04:35;;;;;;;0.30;0.23;;;4.40;99.90;;;;;;5083945;28;20435;-76
2023/12/06 10:07:02;;;;;;;0.30;0.20;;;4.50;99.90;;;;;;5083038;28;20189;-76
2023/12/06 10:09:27;;;;;;;0.30;0.30;;;4.40;99.90;;;;;;5077957;28;20200;-76
2023/12/06 10:12:13;;;;;;;0.30;0.30;;;4.50;99.90;;;;;;5073574;28;20181;-76
2023/12/06 10:14:38;;;;;;;0.30;0.30;;;4.50;99.90;;;;;;5094605;28;20317;-76
2023/12/06 10:17:05;;;;;;;0.30;0.30;;;4.50;99.90;;;;;;5094053;28;20586;-76
2023/12/06 10:19:32;;;;;;;0.60;0.60;;;4.50;99.90;;;;;;5080415;28;20518;-76
2023/12/06 10:22:00;;;;;;;0.30;0.22;;;4.50;99.90;;;;;;5086817;28;20618;-76
2023/12/06 10:24:28;;;;;;;0.30;0.20;;;4.50;99.90;;;;;;5072085;28;20798;-77
2023/12/06 10:27:11;;;;;;;0.30;0.20;;;4.50;99.90;;;;;;5076998;28;20176;-76
2023/12/06 10:29:37;;;;;;;0.30;0.30;;;4.50;99.90;;;;;;5079082;28;20218;-76
2023/12/06 10:32:04;;;;;;;0.30;0.20;;;4.50;99.90;;;;;;5094379;27;20180;-76
2023/12/06 10:34:31;;;;;;;0.30;0.30;;;4.50;99.90;;;;;;5082476;28;20943;-76
2023/12/06 10:36:59;;;;;;;0.30;0.30;;;4.50;99.90;;;;;;5077104;28;20404;-76
2023/12/06 10:39:27;;;;;;;0.30;0.20;;;4.50;99.90;;;;;;5082701;28;20199;-76
2023/12/06 10:41:55;;;;;;;0.30;0.20;;;4.50;99.90;;;;;;5078573;28;20572;-76
2023/12/06 10:44:21;;;;;;;0.30;0.20;;;4.50;99.90;;;;;;5090156;28;20200;-76
2023/12/06 10:46:48;;;;;;;0.30;0.20;;;4.50;99.90;;;;;;5084965;28;20176;-76
2023/12/06 10:49:15;;;;;;;5.47;5.28;;;4.50;99.90;;;;;;5075083;28;20217;-76
2023/12/06 10:51:43;;;;;;;0.30;0.20;;;4.50;99.90;;;;;;5072989;28;20191;-76
2023/12/06 10:54:11;;;;;;;0.30;0.20;;;4.50;99.90;;;;;;5093207;28;20209;-76
2023/12/06 10:56:39;;;;;;;0.30;0.30;;;4.50;99.90;;;;;;5082499;28;20620;-76
2023/12/06 10:59:09;;;;;;;0.30;0.20;;;4.50;99.90;;;;;;5100142;27;20434;-77
2023/12/06 11:01:35;;;;;;;0.30;0.20;;;4.50;99.90;;;;;;5085262;28;20203;-77
2023/12/06 11:04:01;;;;;;;0.30;0.20;;;4.50;99.90;;;;;;5086221;28;20261;-78
2023/12/06 11:07:01;;;;;;;0.30;0.20;;;4.50;99.90;;;;;;5082152;28;20189;-78
2023/12/06 11:10:09;;;;;;;0.30;0.20;;;4.50;99.90;;;;;;5081719;28;20208;-77
2023/12/06 11:13:03;;;;;;;0.30;0.20;;;4.50;99.90;;;;;;5090560;28;20820;-77
2023/12/06 11:15:40;;;;;;;0.30;0.20;;;4.50;99.90;;;;;;5085636;28;20645;-79
2023/12/06 11:18:20;;;;;;;0.30;0.20;;;4.50;99.90;;;;;;5077850;28;20219;-77
2023/12/06 11:20:46;;;;;;;0.30;0.20;;;4.50;99.90;;;;;;5083618;28;20227;-79
2023/12/06 11:23:13;;;;;;;0.30;0.20;;;4.50;99.90;;;;;;5084487;28;20319;-77
2023/12/06 11:25:43;;;;;;;0.30;0.20;;;4.50;99.90;;;;;;5089429;28;20176;-76
2023/12/06 11:28:13;;;;;;;0.30;0.20;;;4.50;99.90;;;;;;5083339;28;20295;-76
2023/12/06 11:30:57;;;;;;;0.30;0.20;;;4.50;99.90;;;;;;5083770;28;20188;-77
2023/12/06 11:33:23;;;;;;;0.30;0.30;;;4.50;99.90;;;;;;5082960;28;20211;-78
2023/12/06 11:35:54;;;;;;;0.30;0.30;;;4.50;99.90;;;;;;5083906;28;20412;-76
2023/12/06 11:38:32;;;;;;;0.30;0.20;;;4.50;99.90;;;;;;5074741;28;20446;-78
2023/12/06 11:40:58;;;;;;;0.30;0.20;;;4.50;99.90;;;;;;5073046;28;20216;-78
2023/12/06 11:43:32;;;;;;;0.30;0.20;;;4.60;99.90;;;;;;5076108;28;20260;-76
2023/12/06 11:46:04;;;;;;;0.30;0.20;;;4.80;99.90;;;;;;5095275;28;20550;-77
2023/12/06 11:48:33;;;;;;;0.30;0.30;;;4.90;99.90;;;;;;5076021;28;20886;-77
2023/12/06 11:51:01;;;;;;;0.30;0.20;;;4.90;99.90;;;;;;5072981;28;20693;-76
2023/12/06 11:53:27;;;;;;;0.30;0.20;;;4.80;99.90;;;;;;5070721;28;20281;-79
2023/12/06 11:55:54;;;;;;;0.30;0.20;;;4.90;99.90;;;;;;5077394;28;20204;-80
2023/12/06 11:58:21;;;;;;;0.30;0.20;;;4.90;99.90;;;;;;5075062;28;20227;-79
2023/12/06 12:00:49;;;;;;;0.30;0.20;;;4.90;99.90;;;;;;5073439;28;20262;-76
2023/12/06 12:03:15;;;;;;;0.30;0.20;;;4.90;99.90;;;;;;5071910;28;20577;-76
2023/12/06 12:05:42;;;;;;;0.30;0.30;;;4.90;99.90;;;;;;5081296;28;20223;-75
2023/12/06 12:08:09;;;;;;;0.30;0.20;;;4.90;99.90;;;;;;5082556;28;20201;-81
2023/12/06 12:10:36;;;;;;;0.30;0.20;;;4.90;99.90;;;;;;5079811;28;20173;-81
2023/12/06 12:13:02;;;;;;;0.30;0.20;;;4.90;99.90;;;;;;5077957;28;20764;-80
2023/12/06 12:15:28;;;;;;;0.30;0.20;;;4.90;99.90;;;;;;5082585;28;20279;-76
2023/12/06 12:17:54;;;;;;;0.30;0.30;;;4.90;99.90;;;;;;5091879;28;20208;-80
2023/12/06 12:20:20;;;;;;;0.30;0.30;;;4.90;99.90;;;;;;5087277;28;20559;-76
2023/12/06 12:22:50;;;;;;;0.30;0.20;;;4.80;99.90;;;;;;5085655;28;20447;-77
2023/12/06 12:25:20;;;;;;;0.30;0.20;;;4.90;99.90;;;;;;5076391;28;20192;-81
2023/12/06 12:27:47;;;;;;;0.30;0.20;;;4.90;99.90;;;;;;5075838;28;20217;-81
2023/12/06 12:30:13;;;;;;;0.30;0.20;;;4.80;99.90;;;;;;5080706;28;20258;-80
2023/12/06 12:32:51;;;;;;;0.30;0.20;;;4.80;99.90;;;;;;5082010;28;20267;-80
2023/12/06 12:35:18;;;;;;;0.30;0.20;;;4.80;99.90;;;;;;5082839;28;20172;-79
2023/12/06 12:37:45;;;;;;;0.30;0.20;;;4.80;99.90;;;;;;5088437;28;20191;-82
2023/12/06 12:40:11;;;;;;;0.30;0.20;;;4.80;99.90;;;;;;5084144;28;20209;-80
2023/12/06 12:42:40;;;;;;;0.30;0.20;;;4.80;99.90;;;;;;5075048;28;20181;-82
2023/12/06 12:45:14;;;;;;;0.30;0.20;;;4.80;99.90;;;;;;5074187;28;20183;-80
2023/12/06 12:47:40;;;;;;;0.30;0.30;;;4.80;99.90;;;;;;5082449;28;20177;-82
2023/12/06 12:50:09;;;;;;;0.30;0.20;;;4.80;99.90;;;;;;5086248;28;20173;-80
2023/12/06 12:52:38;;;;;;;0.30;0.20;;;4.80;99.90;;;;;;5085412;28;20678;-77
2023/12/06 12:55:05;;;;;;;0.30;0.20;;;4.80;99.90;;;;;;5077907;28;20713;-80
2023/12/06 12:57:41;;;;;;;0.30;0.30;;;4.80;99.90;;;;;;5083416;28;20188;-79